sensor_id;sensor_type;location;lat;lon;timestamp;temperature;humidity
65044;DHT22;51617;48.158;16.464;2023-06-10T00:00:20;18.90;99.90
65044;DHT22;51617;48.158;16.464;2023-06-10T00:02:46;18.90;99.90
65044;DHT22;51617;48.158;16.464;2023-06-10T00:05:12;18.80;99.90
65044;DHT22;51617;48.158;16.464;2023-06-10T00:07:37;18.80;99.90
65044;DHT22;51617;48.158;16.464;2023-06-10T00:10:07;18.80;99.90
65044;DHT22;51617;48.158;16.464;2023-06-10T00:12:33;18.70;99.90
65044;DHT22;51617;48.158;16.464;2023-06-10T00:15:06;18.70;99.90
65044;DHT22;51617;48.158;16.464;2023-06-10T00:17:32;18.70;99.90
65044;DHT22;51617;48.158;16.464;2023-06-10T00:19:58;18.70;99.90
65044;DHT22;51617;48.158;16.464;2023-06-10T00:22:24;18.70;99.90
65044;DHT22;51617;48.158;16.464;2023-06-10T00:24:55;18.60;99.90
65044;DHT22;51617;48.158;16.464;2023-06-10T00:27:21;18.60;99.90
65044;DHT22;51617;48.158;16.464;2023-06-10T00:29:47;18.50;99.90
65044;DHT22;51617;48.158;16.464;2023-06-10T00:32:13;18.50;99.90
65044;DHT22;51617;48.158;16.464;2023-06-10T00:34:38;18.50;99.90
65044;DHT22;51617;48.158;16.464;2023-06-10T00:37:04;18.50;99.90
65044;DHT22;51617;48.158;16.464;2023-06-10T00:39:30;18.50;99.90
65044;DHT22;51617;48.158;16.464;2023-06-10T00:41:55;18.60;99.90
65044;DHT22;51617;48.158;16.464;2023-06-10T00:44:21;18.60;99.90
65044;DHT22;51617;48.158;16.464;2023-06-10T00:46:46;18.70;99.90
65044;DHT22;51617;48.158;16.464;2023-06-10T00:49:12;18.70;99.90
65044;DHT22;51617;48.158;16.464;2023-06-10T00:51:38;18.70;99.90
65044;DHT22;51617;48.158;16.464;2023-06-10T00:54:05;18.80;99.90
65044;DHT22;51617;48.158;16.464;2023-06-10T00:56:32;18.80;99.90
65044;DHT22;51617;48.158;16.464;2023-06-10T00:59:00;18.80;99.90
65044;DHT22;51617;48.158;16.464;2023-06-10T01:01:25;18.80;99.90
65044;DHT22;51617;48.158;16.464;2023-06-10T01:03:52;18.90;99.90
65044;DHT22;51617;48.158;16.464;2023-06-10T01:06:27;19.00;99.90
65044;DHT22;51617;48.158;16.464;2023-06-10T01:09:13;19.00;99.90
65044;DHT22;51617;48.158;16.464;2023-06-10T01:11:47;19.10;99.90
65044;DHT22;51617;48.158;16.464;2023-06-10T01:14:15;19.10;99.90
65044;DHT22;51617;48.158;16.464;2023-06-10T01:16:42;19.20;99.90
65044;DHT22;51617;48.158;16.464;2023-06-10T01:19:11;19.20;99.90
65044;DHT22;51617;48.158;16.464;2023-06-10T01:21:38;19.20;99.90
65044;DHT22;51617;48.158;16.464;2023-06-10T01:24:05;19.20;99.90
65044;DHT22;51617;48.158;16.464;2023-06-10T01:26:34;19.30;99.90
65044;DHT22;51617;48.158;16.464;2023-06-10T01:29:41;19.30;99.90
65044;DHT22;51617;48.158;16.464;2023-06-10T01:32:15;19.20;99.90
65044;DHT22;51617;48.158;16.464;2023-06-10T01:34:42;19.20;99.90
65044;DHT22;51617;48.158;16.464;2023-06-10T01:37:10;19.20;99.90
65044;DHT22;51617;48.158;16.464;2023-06-10T01:39:38;19.20;99.90
65044;DHT22;51617;48.158;16.464;2023-06-10T01:42:05;19.20;99.90
65044;DHT22;51617;48.158;16.464;2023-06-10T01:44:32;19.10;99.90
65044;DHT22;51617;48.158;16.464;2023-06-10T01:46:57;19.10;99.90
65044;DHT22;51617;48.158;16.464;2023-06-10T01:49:23;19.10;99.90
65044;DHT22;51617;48.158;16.464;2023-06-10T01:51:49;19.20;99.90
65044;DHT22;51617;48.158;16.464;2023-06-10T01:54:15;19.20;99.90
65044;DHT22;51617;48.158;16.464;2023-06-10T01:56:41;19.20;99.90
65044;DHT22;51617;48.158;16.464;2023-06-10T01:59:07;19.20;99.90
65044;DHT22;51617;48.158;16.464;2023-06-10T02:01:33;19.30;99.90
65044;DHT22;51617;48.158;16.464;2023-06-10T02:03:59;19.30;99.90
65044;DHT22;51617;48.158;16.464;2023-06-10T02:06:24;19.30;99.90
65044;DHT22;51617;48.158;16.464;2023-06-10T02:08:50;19.40;99.90
65044;DHT22;51617;48.158;16.464;2023-06-10T02:11:16;19.40;99.90
65044;DHT22;51617;48.158;16.464;2023-06-10T02:13:41;19.40;99.90
65044;DHT22;51617;48.158;16.464;2023-06-10T02:16:07;19.40;99.90
65044;DHT22;51617;48.158;16.464;2023-06-10T02:18:33;19.40;99.90
65044;DHT22;51617;48.158;16.464;2023-06-10T02:20:59;19.30;99.90
65044;DHT22;51617;48.158;16.464;2023-06-10T02:23:24;19.30;99.90
65044;DHT22;51617;48.158;16.464;2023-06-10T02:25:50;19.30;99.90
65044;DHT22;51617;48.158;16.464;2023-06-10T02:28:16;19.30;99.90
65044;DHT22;51617;48.158;16.464;2023-06-10T02:30:42;19.40;99.90
65044;DHT22;51617;48.158;16.464;2023-06-10T02:33:08;19.40;99.90
65044;DHT22;51617;48.158;16.464;2023-06-10T02:35:38;19.40;99.90
65044;DHT22;51617;48.158;16.464;2023-06-10T02:38:04;19.30;99.90
65044;DHT22;51617;48.158;16.464;2023-06-10T02:40:30;19.30;99.90
65044;DHT22;51617;48.158;16.464;2023-06-10T02:42:56;19.30;99.90
65044;DHT22;51617;48.158;16.464;2023-06-10T02:45:21;19.30;99.90
65044;DHT22;51617;48.158;16.464;2023-06-10T02:47:47;19.30;99.90
65044;DHT22;51617;48.158;16.464;2023-06-10T02:50:12;19.30;99.90
65044;DHT22;51617;48.158;16.464;2023-06-10T02:52:38;19.30;99.90
65044;DHT22;51617;48.158;16.464;2023-06-10T02:55:04;19.30;99.90
65044;DHT22;51617;48.158;16.464;2023-06-10T02:57:30;19.30;99.90
65044;DHT22;51617;48.158;16.464;2023-06-10T02:59:56;19.20;99.90
65044;DHT22;51617;48.158;16.464;2023-06-10T03:02:24;19.20;99.90
65044;DHT22;51617;48.158;16.464;2023-06-10T03:04:56;19.20;99.90
65044;DHT22;51617;48.158;16.464;2023-06-10T03:07:22;19.20;99.90
65044;DHT22;51617;48.158;16.464;2023-06-10T03:09:48;19.10;99.90
65044;DHT22;51617;48.158;16.464;2023-06-10T03:12:14;19.20;99.90
65044;DHT22;51617;48.158;16.464;2023-06-10T03:14:41;19.10;99.90
65044;DHT22;51617;48.158;16.464;2023-06-10T03:17:06;19.10;99.90
65044;DHT22;51617;48.158;16.464;2023-06-10T03:19:34;19.10;99.90
65044;DHT22;51617;48.158;16.464;2023-06-10T03:22:12;19.10;99.90
65044;DHT22;51617;48.158;16.464;2023-06-10T03:24:38;19.10;99.90
65044;DHT22;51617;48.158;16.464;2023-06-10T03:27:12;19.10;99.90
65044;DHT22;51617;48.158;16.464;2023-06-10T03:29:39;19.10;99.90
65044;DHT22;51617;48.158;16.464;2023-06-10T03:32:04;19.10;99.90
65044;DHT22;51617;48.158;16.464;2023-06-10T03:34:30;19.10;99.90
65044;DHT22;51617;48.158;16.464;2023-06-10T03:36:57;19.20;99.90
65044;DHT22;51617;48.158;16.464;2023-06-10T03:39:22;19.20;99.90
65044;DHT22;51617;48.158;16.464;2023-06-10T03:41:49;19.30;99.90
65044;DHT22;51617;48.158;16.464;2023-06-10T03:44:15;19.30;99.90
65044;DHT22;51617;48.158;16.464;2023-06-10T03:46:41;19.30;99.90
65044;DHT22;51617;48.158;16.464;2023-06-10T03:49:06;19.40;99.90
65044;DHT22;51617;48.158;16.464;2023-06-10T03:51:32;19.40;99.90
65044;DHT22;51617;48.158;16.464;2023-06-10T03:53:57;19.40;99.90
65044;DHT22;51617;48.158;16.464;2023-06-10T03:56:23;19.50;99.90
65044;DHT22;51617;48.158;16.464;2023-06-10T03:58:49;19.60;99.90
65044;DHT22;51617;48.158;16.464;2023-06-10T04:01:14;19.70;99.90
65044;DHT22;51617;48.158;16.464;2023-06-10T04:03:40;19.70;99.90
65044;DHT22;51617;48.158;16.464;2023-06-10T04:06:09;19.70;99.90
65044;DHT22;51617;48.158;16.464;2023-06-10T04:08:34;19.70;99.90
65044;DHT22;51617;48.158;16.464;2023-06-10T04:11:01;19.70;99.90
65044;DHT22;51617;48.158;16.464;2023-06-10T04:13:27;19.70;99.90
65044;DHT22;51617;48.158;16.464;2023-06-10T04:15:53;19.70;99.90
65044;DHT22;51617;48.158;16.464;2023-06-10T04:18:20;19.70;99.90
65044;DHT22;51617;48.158;16.464;2023-06-10T04:20:47;19.70;99.90
65044;DHT22;51617;48.158;16.464;2023-06-10T04:23:13;19.70;99.90
65044;DHT22;51617;48.158;16.464;2023-06-10T04:25:38;19.70;99.90
65044;DHT22;51617;48.158;16.464;2023-06-10T04:28:04;19.70;99.90
65044;DHT22;51617;48.158;16.464;2023-06-10T04:30:30;19.80;99.90
65044;DHT22;51617;48.158;16.464;2023-06-10T04:32:57;19.80;99.90
65044;DHT22;51617;48.158;16.464;2023-06-10T04:35:22;19.80;99.90
65044;DHT22;51617;48.158;16.464;2023-06-10T04:37:48;19.90;99.90
65044;DHT22;51617;48.158;16.464;2023-06-10T04:40:14;20.00;99.90
65044;DHT22;51617;48.158;16.464;2023-06-10T04:42:41;20.00;99.90
65044;DHT22;51617;48.158;16.464;2023-06-10T04:45:07;20.00;99.90
65044;DHT22;51617;48.158;16.464;2023-06-10T04:47:33;20.00;99.90
65044;DHT22;51617;48.158;16.464;2023-06-10T04:50:02;20.00;99.90
65044;DHT22;51617;48.158;16.464;2023-06-10T04:52:29;20.10;99.90
65044;DHT22;51617;48.158;16.464;2023-06-10T04:54:54;20.20;99.90
65044;DHT22;51617;48.158;16.464;2023-06-10T04:57:21;20.20;99.90
65044;DHT22;51617;48.158;16.464;2023-06-10T04:59:47;20.30;99.90
65044;DHT22;51617;48.158;16.464;2023-06-10T05:02:13;20.30;99.90
65044;DHT22;51617;48.158;16.464;2023-06-10T05:04:39;20.30;99.90
65044;DHT22;51617;48.158;16.464;2023-06-10T05:07:05;20.40;99.90
65044;DHT22;51617;48.158;16.464;2023-06-10T05:09:30;20.40;99.90
65044;DHT22;51617;48.158;16.464;2023-06-10T05:11:56;20.50;99.90
65044;DHT22;51617;48.158;16.464;2023-06-10T05:14:22;20.50;99.90
65044;DHT22;51617;48.158;16.464;2023-06-10T05:16:48;20.50;99.90
65044;DHT22;51617;48.158;16.464;2023-06-10T05:19:14;20.50;99.90
65044;DHT22;51617;48.158;16.464;2023-06-10T05:21:41;20.50;99.90
65044;DHT22;51617;48.158;16.464;2023-06-10T05:24:07;20.60;99.90
65044;DHT22;51617;48.158;16.464;2023-06-10T05:26:33;20.60;99.90
65044;DHT22;51617;48.158;16.464;2023-06-10T05:29:03;20.60;99.90
65044;DHT22;51617;48.158;16.464;2023-06-10T05:31:28;20.60;99.90
65044;DHT22;51617;48.158;16.464;2023-06-10T05:33:54;20.60;99.90
65044;DHT22;51617;48.158;16.464;2023-06-10T05:36:20;20.50;99.90
65044;DHT22;51617;48.158;16.464;2023-06-10T05:38:46;20.60;99.90
65044;DHT22;51617;48.158;16.464;2023-06-10T05:41:11;20.60;99.90
65044;DHT22;51617;48.158;16.464;2023-06-10T05:43:37;20.70;99.90
65044;DHT22;51617;48.158;16.464;2023-06-10T05:46:04;20.70;99.90
65044;DHT22;51617;48.158;16.464;2023-06-10T05:48:30;20.80;99.90
65044;DHT22;51617;48.158;16.464;2023-06-10T05:50:56;20.80;99.90
65044;DHT22;51617;48.158;16.464;2023-06-10T05:53:22;20.80;99.90
65044;DHT22;51617;48.158;16.464;2023-06-10T05:55:47;20.80;99.90
65044;DHT22;51617;48.158;16.464;2023-06-10T05:58:14;20.70;99.90
65044;DHT22;51617;48.158;16.464;2023-06-10T06:00:40;20.80;99.90
65044;DHT22;51617;48.158;16.464;2023-06-10T06:03:07;20.80;99.90
65044;DHT22;51617;48.158;16.464;2023-06-10T06:05:36;20.80;99.90
65044;DHT22;51617;48.158;16.464;2023-06-10T06:08:07;20.80;99.90
65044;DHT22;51617;48.158;16.464;2023-06-10T06:10:33;20.70;99.90
65044;DHT22;51617;48.158;16.464;2023-06-10T06:13:00;20.70;99.90
65044;DHT22;51617;48.158;16.464;2023-06-10T06:15:25;20.70;99.90
65044;DHT22;51617;48.158;16.464;2023-06-10T06:17:51;20.60;99.90
65044;DHT22;51617;48.158;16.464;2023-06-10T06:20:21;20.50;99.90
65044;DHT22;51617;48.158;16.464;2023-06-10T06:22:47;20.40;99.90
65044;DHT22;51617;48.158;16.464;2023-06-10T06:25:12;20.40;99.90
65044;DHT22;51617;48.158;16.464;2023-06-10T06:27:38;20.30;99.90
65044;DHT22;51617;48.158;16.464;2023-06-10T06:30:05;20.30;99.90
65044;DHT22;51617;48.158;16.464;2023-06-10T06:32:30;20.30;99.90
65044;DHT22;51617;48.158;16.464;2023-06-10T06:34:56;20.30;99.90
65044;DHT22;51617;48.158;16.464;2023-06-10T06:37:23;20.30;99.90
65044;DHT22;51617;48.158;16.464;2023-06-10T06:39:52;20.40;99.90
65044;DHT22;51617;48.158;16.464;2023-06-10T06:42:19;20.50;99.90
65044;DHT22;51617;48.158;16.464;2023-06-10T06:44:45;20.50;99.90
65044;DHT22;51617;48.158;16.464;2023-06-10T06:47:11;20.50;99.90
65044;DHT22;51617;48.158;16.464;2023-06-10T06:49:37;20.50;99.90
65044;DHT22;51617;48.158;16.464;2023-06-10T06:52:03;20.60;99.90
65044;DHT22;51617;48.158;16.464;2023-06-10T06:54:28;20.60;99.90
65044;DHT22;51617;48.158;16.464;2023-06-10T06:56:54;20.60;99.90
65044;DHT22;51617;48.158;16.464;2023-06-10T06:59:20;20.70;99.90
65044;DHT22;51617;48.158;16.464;2023-06-10T07:01:46;20.60;99.90
65044;DHT22;51617;48.158;16.464;2023-06-10T07:04:14;20.60;99.90
65044;DHT22;51617;48.158;16.464;2023-06-10T07:06:39;20.70;99.90
65044;DHT22;51617;48.158;16.464;2023-06-10T07:09:07;20.70;99.90
65044;DHT22;51617;48.158;16.464;2023-06-10T07:11:33;20.60;99.90
65044;DHT22;51617;48.158;16.464;2023-06-10T07:13:59;20.70;99.90
65044;DHT22;51617;48.158;16.464;2023-06-10T07:16:25;20.80;99.90
65044;DHT22;51617;48.158;16.464;2023-06-10T07:18:52;20.80;99.90
65044;DHT22;51617;48.158;16.464;2023-06-10T07:21:18;20.80;99.90
65044;DHT22;51617;48.158;16.464;2023-06-10T07:23:44;20.90;99.90
65044;DHT22;51617;48.158;16.464;2023-06-10T07:26:10;21.00;99.90
65044;DHT22;51617;48.158;16.464;2023-06-10T07:28:37;21.00;99.90
65044;DHT22;51617;48.158;16.464;2023-06-10T07:31:03;21.00;99.90
65044;DHT22;51617;48.158;16.464;2023-06-10T07:33:29;21.00;99.90
65044;DHT22;51617;48.158;16.464;2023-06-10T07:35:55;21.00;99.90
65044;DHT22;51617;48.158;16.464;2023-06-10T07:38:20;21.00;99.90
65044;DHT22;51617;48.158;16.464;2023-06-10T07:40:46;21.00;99.90
65044;DHT22;51617;48.158;16.464;2023-06-10T07:43:12;21.00;99.90
65044;DHT22;51617;48.158;16.464;2023-06-10T07:45:40;21.10;99.90
65044;DHT22;51617;48.158;16.464;2023-06-10T07:48:05;21.10;99.90
65044;DHT22;51617;48.158;16.464;2023-06-10T07:50:31;21.20;99.90
65044;DHT22;51617;48.158;16.464;2023-06-10T07:52:56;21.20;99.90
65044;DHT22;51617;48.158;16.464;2023-06-10T07:55:24;21.10;99.90
65044;DHT22;51617;48.158;16.464;2023-06-10T07:57:54;21.20;99.90
65044;DHT22;51617;48.158;16.464;2023-06-10T08:00:20;21.10;99.90
65044;DHT22;51617;48.158;16.464;2023-06-10T08:02:46;21.20;99.90
65044;DHT22;51617;48.158;16.464;2023-06-10T08:05:12;21.10;99.90
65044;DHT22;51617;48.158;16.464;2023-06-10T08:07:39;21.10;99.90
65044;DHT22;51617;48.158;16.464;2023-06-10T08:10:06;21.10;99.90
65044;DHT22;51617;48.158;16.464;2023-06-10T08:12:33;21.10;99.90
65044;DHT22;51617;48.158;16.464;2023-06-10T08:14:59;21.10;99.90
65044;DHT22;51617;48.158;16.464;2023-06-10T08:17:25;21.00;99.90
65044;DHT22;51617;48.158;16.464;2023-06-10T08:19:51;21.00;99.90
65044;DHT22;51617;48.158;16.464;2023-06-10T08:22:16;21.00;99.90
65044;DHT22;51617;48.158;16.464;2023-06-10T08:24:42;21.00;99.90
65044;DHT22;51617;48.158;16.464;2023-06-10T08:27:07;20.90;99.90
65044;DHT22;51617;48.158;16.464;2023-06-10T08:29:33;21.00;99.90
65044;DHT22;51617;48.158;16.464;2023-06-10T08:31:59;21.00;99.90
65044;DHT22;51617;48.158;16.464;2023-06-10T08:34:24;21.10;99.90
65044;DHT22;51617;48.158;16.464;2023-06-10T08:36:50;21.20;99.90
65044;DHT22;51617;48.158;16.464;2023-06-10T08:39:21;21.20;99.90
65044;DHT22;51617;48.158;16.464;2023-06-10T08:42:11;21.20;99.90
65044;DHT22;51617;48.158;16.464;2023-06-10T08:44:40;21.30;99.90
65044;DHT22;51617;48.158;16.464;2023-06-10T08:47:14;21.30;99.90
65044;DHT22;51617;48.158;16.464;2023-06-10T08:49:47;21.40;99.90
65044;DHT22;51617;48.158;16.464;2023-06-10T08:52:18;21.40;99.90
65044;DHT22;51617;48.158;16.464;2023-06-10T08:57:12;21.50;99.90
65044;DHT22;51617;48.158;16.464;2023-06-10T08:59:38;21.50;99.90
65044;DHT22;51617;48.158;16.464;2023-06-10T09:02:06;21.50;99.80
65044;DHT22;51617;48.158;16.464;2023-06-10T09:04:32;21.60;99.50
65044;DHT22;51617;48.158;16.464;2023-06-10T09:06:59;21.70;99.30
65044;DHT22;51617;48.158;16.464;2023-06-10T09:09:27;21.70;99.30
65044;DHT22;51617;48.158;16.464;2023-06-10T09:11:53;21.70;98.90
65044;DHT22;51617;48.158;16.464;2023-06-10T09:14:19;21.70;98.90
65044;DHT22;51617;48.158;16.464;2023-06-10T09:16:45;21.80;98.80
65044;DHT22;51617;48.158;16.464;2023-06-10T09:19:12;21.80;98.70
65044;DHT22;51617;48.158;16.464;2023-06-10T09:21:38;21.90;98.80
65044;DHT22;51617;48.158;16.464;2023-06-10T09:24:05;22.10;98.80
65044;DHT22;51617;48.158;16.464;2023-06-10T09:26:31;22.20;98.20
65044;DHT22;51617;48.158;16.464;2023-06-10T09:29:04;22.20;98.10
65044;DHT22;51617;48.158;16.464;2023-06-10T09:31:31;22.30;98.20
65044;DHT22;51617;48.158;16.464;2023-06-10T09:36:33;22.30;98.30
65044;DHT22;51617;48.158;16.464;2023-06-10T09:38:59;22.40;98.10
65044;DHT22;51617;48.158;16.464;2023-06-10T09:41:40;22.50;98.00
65044;DHT22;51617;48.158;16.464;2023-06-10T09:44:13;22.60;97.70
65044;DHT22;51617;48.158;16.464;2023-06-10T09:46:40;22.80;97.60
65044;DHT22;51617;48.158;16.464;2023-06-10T09:49:06;22.90;97.30
65044;DHT22;51617;48.158;16.464;2023-06-10T09:51:32;22.90;97.20
65044;DHT22;51617;48.158;16.464;2023-06-10T09:53:59;23.10;97.30
65044;DHT22;51617;48.158;16.464;2023-06-10T09:56:37;23.20;96.60
65044;DHT22;51617;48.158;16.464;2023-06-10T09:59:04;23.30;96.50
65044;DHT22;51617;48.158;16.464;2023-06-10T10:01:31;23.40;96.70
65044;DHT22;51617;48.158;16.464;2023-06-10T10:03:59;23.70;96.40
65044;DHT22;51617;48.158;16.464;2023-06-10T10:06:26;23.80;96.00
65044;DHT22;51617;48.158;16.464;2023-06-10T10:08:53;23.80;95.70
65044;DHT22;51617;48.158;16.464;2023-06-10T10:11:19;23.90;95.70
65044;DHT22;51617;48.158;16.464;2023-06-10T10:13:48;24.10;95.50
65044;DHT22;51617;48.158;16.464;2023-06-10T10:16:17;24.10;95.10
65044;DHT22;51617;48.158;16.464;2023-06-10T10:18:58;24.00;95.20
65044;DHT22;51617;48.158;16.464;2023-06-10T10:21:27;24.10;95.30
65044;DHT22;51617;48.158;16.464;2023-06-10T10:24:07;24.00;95.30
65044;DHT22;51617;48.158;16.464;2023-06-10T10:26:36;24.10;95.50
65044;DHT22;51617;48.158;16.464;2023-06-10T10:29:24;24.10;95.10
65044;DHT22;51617;48.158;16.464;2023-06-10T10:31:56;24.00;95.20
65044;DHT22;51617;48.158;16.464;2023-06-10T10:34:30;23.90;95.30
65044;DHT22;51617;48.158;16.464;2023-06-10T10:37:01;23.90;95.10
65044;DHT22;51617;48.158;16.464;2023-06-10T10:39:27;24.00;95.20
65044;DHT22;51617;48.158;16.464;2023-06-10T10:41:54;24.10;95.20
65044;DHT22;51617;48.158;16.464;2023-06-10T10:44:21;24.10;95.40
65044;DHT22;51617;48.158;16.464;2023-06-10T10:46:51;24.10;95.00
65044;DHT22;51617;48.158;16.464;2023-06-10T10:49:18;24.00;94.80
65044;DHT22;51617;48.158;16.464;2023-06-10T10:51:57;24.00;95.10
65044;DHT22;51617;48.158;16.464;2023-06-10T10:54:43;24.00;94.90
65044;DHT22;51617;48.158;16.464;2023-06-10T10:57:12;24.20;94.90
65044;DHT22;51617;48.158;16.464;2023-06-10T10:59:57;24.30;94.70
65044;DHT22;51617;48.158;16.464;2023-06-10T11:02:41;24.40;94.60
65044;DHT22;51617;48.158;16.464;2023-06-10T11:05:13;24.70;94.10
65044;DHT22;51617;48.158;16.464;2023-06-10T11:07:39;24.90;93.80
65044;DHT22;51617;48.158;16.464;2023-06-10T11:10:13;24.90;93.90
65044;DHT22;51617;48.158;16.464;2023-06-10T11:12:50;25.00;93.00
65044;DHT22;51617;48.158;16.464;2023-06-10T11:15:23;25.10;93.00
65044;DHT22;51617;48.158;16.464;2023-06-10T11:23:38;25.40;92.60
65044;DHT22;51617;48.158;16.464;2023-06-10T11:28:40;25.70;92.00
65044;DHT22;51617;48.158;16.464;2023-06-10T11:31:06;25.70;92.00
65044;DHT22;51617;48.158;16.464;2023-06-10T11:33:32;25.80;92.10
65044;DHT22;51617;48.158;16.464;2023-06-10T11:35:58;25.70;91.70
65044;DHT22;51617;48.158;16.464;2023-06-10T11:38:25;25.60;91.90
65044;DHT22;51617;48.158;16.464;2023-06-10T11:40:51;25.50;92.00
65044;DHT22;51617;48.158;16.464;2023-06-10T11:43:20;25.40;92.10
65044;DHT22;51617;48.158;16.464;2023-06-10T11:45:46;25.40;91.90
65044;DHT22;51617;48.158;16.464;2023-06-10T11:48:12;25.40;92.00
65044;DHT22;51617;48.158;16.464;2023-06-10T11:50:38;25.30;92.00
65044;DHT22;51617;48.158;16.464;2023-06-10T11:53:05;25.40;92.20
65044;DHT22;51617;48.158;16.464;2023-06-10T11:55:41;25.60;91.90
65044;DHT22;51617;48.158;16.464;2023-06-10T11:58:18;25.80;91.90
65044;DHT22;51617;48.158;16.464;2023-06-10T12:00:51;26.00;91.90
65044;DHT22;51617;48.158;16.464;2023-06-10T12:03:19;26.00;91.90
65044;DHT22;51617;48.158;16.464;2023-06-10T12:06:04;25.90;91.80
65044;DHT22;51617;48.158;16.464;2023-06-10T12:08:30;25.80;91.80
65044;DHT22;51617;48.158;16.464;2023-06-10T12:10:56;25.60;92.30
65044;DHT22;51617;48.158;16.464;2023-06-10T12:13:26;25.60;92.50
65044;DHT22;51617;48.158;16.464;2023-06-10T12:15:52;25.50;92.20
65044;DHT22;51617;48.158;16.464;2023-06-10T12:18:22;25.50;92.30
65044;DHT22;51617;48.158;16.464;2023-06-10T12:20:49;25.70;92.20
65044;DHT22;51617;48.158;16.464;2023-06-10T12:23:16;26.00;92.10
65044;DHT22;51617;48.158;16.464;2023-06-10T12:25:56;26.40;91.60
65044;DHT22;51617;48.158;16.464;2023-06-10T12:28:26;26.60;91.30
65044;DHT22;51617;48.158;16.464;2023-06-10T12:31:06;26.80;91.10
65044;DHT22;51617;48.158;16.464;2023-06-10T12:33:33;26.90;90.80
65044;DHT22;51617;48.158;16.464;2023-06-10T12:35:59;26.60;91.30
65044;DHT22;51617;48.158;16.464;2023-06-10T12:38:26;26.30;91.30
65044;DHT22;51617;48.158;16.464;2023-06-10T12:41:01;26.00;91.60
65044;DHT22;51617;48.158;16.464;2023-06-10T12:43:27;25.80;92.00
65044;DHT22;51617;48.158;16.464;2023-06-10T12:45:53;25.60;92.10
65044;DHT22;51617;48.158;16.464;2023-06-10T12:48:24;25.40;92.50
65044;DHT22;51617;48.158;16.464;2023-06-10T12:50:53;25.00;93.90
65044;DHT22;51617;48.158;16.464;2023-06-10T12:53:20;24.50;95.70
65044;DHT22;51617;48.158;16.464;2023-06-10T12:55:47;23.90;97.00
65044;DHT22;51617;48.158;16.464;2023-06-10T12:58:12;23.60;97.60
65044;DHT22;51617;48.158;16.464;2023-06-10T13:00:38;23.40;98.00
65044;DHT22;51617;48.158;16.464;2023-06-10T13:03:05;23.40;98.10
65044;DHT22;51617;48.158;16.464;2023-06-10T13:05:32;23.40;98.80
65044;DHT22;51617;48.158;16.464;2023-06-10T13:07:59;23.40;98.70
65044;DHT22;51617;48.158;16.464;2023-06-10T13:10:25;23.40;99.10
65044;DHT22;51617;48.158;16.464;2023-06-10T13:12:52;23.40;98.60
65044;DHT22;51617;48.158;16.464;2023-06-10T13:15:20;23.40;98.70
65044;DHT22;51617;48.158;16.464;2023-06-10T13:17:46;23.40;98.40
65044;DHT22;51617;48.158;16.464;2023-06-10T13:20:16;23.50;98.50
65044;DHT22;51617;48.158;16.464;2023-06-10T13:22:42;23.70;98.40
65044;DHT22;51617;48.158;16.464;2023-06-10T13:25:08;23.90;98.50
65044;DHT22;51617;48.158;16.464;2023-06-10T13:27:34;24.10;98.60
65044;DHT22;51617;48.158;16.464;2023-06-10T13:30:00;24.20;98.20
65044;DHT22;51617;48.158;16.464;2023-06-10T13:32:26;24.20;97.70
65044;DHT22;51617;48.158;16.464;2023-06-10T13:34:51;24.20;97.80
65044;DHT22;51617;48.158;16.464;2023-06-10T13:37:18;24.20;98.10
65044;DHT22;51617;48.158;16.464;2023-06-10T13:39:45;24.30;98.00
65044;DHT22;51617;48.158;16.464;2023-06-10T13:42:13;24.40;97.80
65044;DHT22;51617;48.158;16.464;2023-06-10T13:44:39;24.40;97.30
65044;DHT22;51617;48.158;16.464;2023-06-10T13:47:05;24.50;97.80
65044;DHT22;51617;48.158;16.464;2023-06-10T13:49:32;24.50;96.80
65044;DHT22;51617;48.158;16.464;2023-06-10T13:51:57;24.60;96.80
65044;DHT22;51617;48.158;16.464;2023-06-10T13:54:23;24.60;96.10
65044;DHT22;51617;48.158;16.464;2023-06-10T13:56:49;24.50;96.10
65044;DHT22;51617;48.158;16.464;2023-06-10T13:59:14;24.50;96.30
65044;DHT22;51617;48.158;16.464;2023-06-10T14:01:40;24.50;96.30
65044;DHT22;51617;48.158;16.464;2023-06-10T14:04:06;24.50;96.60
65044;DHT22;51617;48.158;16.464;2023-06-10T14:06:32;24.50;96.50
65044;DHT22;51617;48.158;16.464;2023-06-10T14:08:59;24.50;96.40
65044;DHT22;51617;48.158;16.464;2023-06-10T14:11:25;24.50;96.60
65044;DHT22;51617;48.158;16.464;2023-06-10T14:13:50;24.60;96.60
65044;DHT22;51617;48.158;16.464;2023-06-10T14:16:16;24.70;96.50
65044;DHT22;51617;48.158;16.464;2023-06-10T14:18:42;24.80;96.50
65044;DHT22;51617;48.158;16.464;2023-06-10T14:21:07;24.90;96.30
65044;DHT22;51617;48.158;16.464;2023-06-10T14:23:33;25.00;96.10
65044;DHT22;51617;48.158;16.464;2023-06-10T14:25:59;25.10;95.90
65044;DHT22;51617;48.158;16.464;2023-06-10T14:28:25;25.10;95.80
65044;DHT22;51617;48.158;16.464;2023-06-10T14:30:53;25.10;95.70
65044;DHT22;51617;48.158;16.464;2023-06-10T14:33:18;25.00;95.70
65044;DHT22;51617;48.158;16.464;2023-06-10T14:35:44;25.00;96.00
65044;DHT22;51617;48.158;16.464;2023-06-10T14:38:10;25.10;96.10
65044;DHT22;51617;48.158;16.464;2023-06-10T14:40:35;25.10;96.20
65044;DHT22;51617;48.158;16.464;2023-06-10T14:43:01;25.20;95.90
65044;DHT22;51617;48.158;16.464;2023-06-10T14:45:29;25.10;95.60
65044;DHT22;51617;48.158;16.464;2023-06-10T14:47:55;25.00;96.00
65044;DHT22;51617;48.158;16.464;2023-06-10T14:50:20;25.00;95.90
65044;DHT22;51617;48.158;16.464;2023-06-10T14:52:46;25.10;95.80
65044;DHT22;51617;48.158;16.464;2023-06-10T14:55:12;25.20;95.60
65044;DHT22;51617;48.158;16.464;2023-06-10T14:57:37;25.30;95.40
65044;DHT22;51617;48.158;16.464;2023-06-10T15:00:03;25.30;95.50
65044;DHT22;51617;48.158;16.464;2023-06-10T15:02:29;25.30;95.60
65044;DHT22;51617;48.158;16.464;2023-06-10T15:04:55;25.40;95.70
65044;DHT22;51617;48.158;16.464;2023-06-10T15:07:20;25.40;95.70
65044;DHT22;51617;48.158;16.464;2023-06-10T15:09:46;25.40;95.50
65044;DHT22;51617;48.158;16.464;2023-06-10T15:12:11;25.40;95.80
65044;DHT22;51617;48.158;16.464;2023-06-10T15:14:37;25.40;95.30
65044;DHT22;51617;48.158;16.464;2023-06-10T15:17:03;25.50;95.10
65044;DHT22;51617;48.158;16.464;2023-06-10T15:19:29;25.60;94.90
65044;DHT22;51617;48.158;16.464;2023-06-10T15:21:54;25.80;94.80
65044;DHT22;51617;48.158;16.464;2023-06-10T15:24:20;25.90;94.50
65044;DHT22;51617;48.158;16.464;2023-06-10T15:26:46;26.10;94.40
65044;DHT22;51617;48.158;16.464;2023-06-10T15:29:11;26.10;94.50